Time;durP1;ratioP1;P1;durP2;ratioP2;P2;SDS_P1;SDS_P2;PMS_P1;PMS_P2;Temp;Humidity;BMP_temperature;BMP_pressure;BME280_temperature;BME280_humidity;BME280_pressure;Samples;Min_cycle;Max_cycle;Signal;HPM_P1;HPM_P2
2022/02/09 00:04:12;;;;;;;7.15;5.82;;;10.60;78.90;;;;;;5044276;28;20037;-63
2022/02/09 00:09:05;;;;;;;8.70;5.65;;;10.60;78.90;;;;;;5044830;28;20029;-63
2022/02/09 00:11:39;;;;;;;7.18;5.32;;;10.60;79.10;;;;;;5037448;28;20057;-63
2022/02/09 00:19:42;;;;;;;6.50;5.25;;;10.60;79.00;;;;;;5029072;28;20098;-63
2022/02/09 00:22:38;;;;;;;7.85;5.20;;;10.60;79.00;;;;;;5028085;28;20030;-63
2022/02/09 00:25:32;;;;;;;8.45;4.75;;;10.60;78.90;;;;;;5042075;28;20084;-63
2022/02/09 00:28:12;;;;;;;6.30;4.70;;;10.60;78.80;;;;;;5045384;28;20068;-63
2022/02/09 00:39:19;;;;;;;6.75;4.22;;;10.50;78.80;;;;;;5048382;28;20476;-63
2022/02/09 00:44:36;;;;;;;5.22;3.63;;;10.50;78.90;;;;;;5033175;28;20041;-63
2022/02/09 01:32:53;;;;;;;7.20;3.85;;;10.60;78.80;;;;;;5033092;28;20037;-63
2022/02/09 01:39:10;;;;;;;4.38;2.80;;;10.60;78.60;;;;;;5032204;28;20143;-62
2022/02/09 01:55:34;;;;;;;5.03;3.72;;;10.50;78.60;;;;;;4996662;28;20070;-68
2022/02/09 01:58:00;;;;;;;5.68;4.28;;;10.50;78.70;;;;;;5033609;28;20049;-69
2022/02/09 02:00:26;;;;;;;5.22;3.58;;;10.50;78.70;;;;;;5053321;28;20026;-69
2022/02/09 02:02:53;;;;;;;4.50;3.80;;;10.60;78.80;;;;;;5053169;28;20502;-69
2022/02/09 02:05:18;;;;;;;5.90;4.03;;;10.50;78.90;;;;;;5053167;28;20048;-69
2022/02/09 02:07:53;;;;;;;7.63;4.50;;;10.60;79.10;;;;;;5039180;28;20502;-69
2022/02/09 02:10:48;;;;;;;5.30;4.78;;;10.50;79.10;;;;;;5033099;28;20045;-69
2022/02/09 02:18:15;;;;;;;7.25;5.47;;;10.50;79.70;;;;;;5050742;28;20151;-69
2022/02/09 02:21:01;;;;;;;7.03;5.60;;;10.50;79.90;;;;;;5045492;28;20496;-68
2022/02/09 02:23:44;;;;;;;7.38;5.85;;;10.50;80.10;;;;;;5048098;28;20022;-68
2022/02/09 02:35:03;;;;;;;6.72;6.13;;;10.50;81.00;;;;;;5037705;28;20449;-63
2022/02/09 02:47:34;;;;;;;6.70;6.07;;;10.40;81.60;;;;;;5036657;28;20039;-68
2022/02/09 03:09:11;;;;;;;6.85;6.15;;;10.40;82.40;;;;;;5039882;28;20036;-68
2022/02/09 03:14:40;;;;;;;6.70;6.10;;;10.40;82.50;;;;;;5051650;28;20037;-68
2022/02/09 03:17:10;;;;;;;6.47;5.88;;;10.50;82.60;;;;;;5045619;28;20048;-68
2022/02/09 03:22:23;;;;;;;6.70;5.70;;;10.40;82.60;;;;;;5032238;28;20079;-69
2022/02/09 03:44:09;;;;;;;6.50;5.82;;;10.50;82.90;;;;;;5046701;28;20040;-69
2022/02/09 03:52:33;;;;;;;6.82;6.13;;;10.40;83.20;;;;;;5031183;28;20074;-68
2022/02/09 03:57:41;;;;;;;7.40;6.70;;;10.40;83.30;;;;;;5030178;28;20059;-68
2022/02/09 04:00:07;;;;;;;7.03;6.32;;;10.40;83.50;;;;;;5031179;28;20084;-68
2022/02/09 04:02:33;;;;;;;9.02;6.63;;;10.40;83.50;;;;;;5030773;28;20039;-69
2022/02/09 04:04:59;;;;;;;8.10;7.30;;;10.40;83.60;;;;;;5029864;28;20021;-68
2022/02/09 04:07:24;;;;;;;8.40;7.60;;;10.40;83.70;;;;;;5029752;28;20037;-69
2022/02/09 04:09:54;;;;;;;8.40;7.60;;;10.40;84.40;;;;;;5030715;28;20103;-68
2022/02/09 04:12:37;;;;;;;8.60;7.70;;;10.40;83.90;;;;;;5030235;28;20022;-68
2022/02/09 04:17:48;;;;;;;10.75;8.40;;;10.40;84.00;;;;;;5035177;28;20060;-63
2022/02/09 04:36:59;;;;;;;10.07;9.07;;;10.10;86.00;;;;;;5036384;28;20055;-63
2022/02/09 04:39:29;;;;;;;10.30;9.20;;;10.10;86.30;;;;;;5044444;28;20112;-63
2022/02/09 04:42:40;;;;;;;9.63;8.68;;;10.10;86.30;;;;;;5029460;28;20044;-64
2022/02/09 04:47:55;;;;;;;10.93;9.82;;;10.00;86.70;;;;;;5029016;28;20766;-64
2022/02/09 04:58:08;;;;;;;13.15;10.98;;;10.00;87.70;;;;;;5032819;28;20119;-68
2022/02/09 05:00:53;;;;;;;12.27;11.07;;;10.00;87.90;;;;;;5039740;28;20057;-69
2022/02/09 05:25:14;;;;;;;14.98;13.48;;;9.90;89.20;;;;;;5029392;28;20084;-69
2022/02/09 05:27:52;;;;;;;14.65;13.25;;;9.90;89.20;;;;;;5040432;28;20064;-69
2022/02/09 05:30:18;;;;;;;15.45;13.95;;;9.90;89.50;;;;;;5049186;28;20025;-64
2022/02/09 05:32:46;;;;;;;13.98;12.57;;;9.80;89.50;;;;;;5046804;28;20040;-64
2022/02/09 05:35:12;;;;;;;14.68;13.27;;;9.80;89.50;;;;;;5037583;28;20082;-64
2022/02/09 05:37:37;;;;;;;16.27;14.57;;;9.90;89.50;;;;;;5036220;28;20033;-64
2022/02/09 05:40:04;;;;;;;15.30;13.70;;;9.80;89.50;;;;;;5031107;28;20029;-64
2022/02/09 05:42:31;;;;;;;13.40;12.13;;;9.90;89.40;;;;;;5038669;28;20032;-64
2022/02/09 05:44:57;;;;;;;15.43;13.98;;;9.90;89.40;;;;;;5027636;28;20475;-64
2022/02/09 05:50:14;;;;;;;16.23;14.73;;;9.90;89.30;;;;;;5037960;28;20210;-64
2022/02/09 05:53:24;;;;;;;15.70;14.10;;;9.90;89.40;;;;;;5049766;28;20021;-64
2022/02/09 05:55:46;;;;;;;16.65;15.05;;;9.80;89.30;;;;;;5048864;28;20044;-64
2022/02/09 05:58:21;;;;;;;15.63;14.13;;;9.80;89.50;;;;;;5035121;28;20465;-64
2022/02/09 06:00:48;;;;;;;16.75;15.15;;;9.80;89.60;;;;;;5029895;28;20120;-64
2022/02/09 06:03:14;;;;;;;16.23;14.73;;;9.80;89.60;;;;;;5034337;28;20483;-64
2022/02/09 06:05:40;;;;;;;15.60;14.00;;;9.80;89.70;;;;;;5031925;28;20025;-64
2022/02/09 06:08:07;;;;;;;15.48;13.98;;;9.80;89.70;;;;;;5030756;28;20031;-64
2022/02/09 06:10:34;;;;;;;15.32;13.93;;;9.80;89.90;;;;;;5040256;28;20029;-64
2022/02/09 06:20:58;;;;;;;15.20;13.73;;;9.80;89.70;;;;;;5031932;28;20044;-64
2022/02/09 06:23:27;;;;;;;16.45;14.90;;;9.80;89.70;;;;;;5030382;28;20450;-64
2022/02/09 06:25:53;;;;;;;15.95;14.48;;;9.80;89.80;;;;;;5031581;28;20125;-64
2022/02/09 06:28:18;;;;;;;15.70;14.20;;;9.80;89.80;;;;;;5031431;28;20246;-64
2022/02/09 06:30:44;;;;;;;15.82;14.05;;;9.80;89.90;;;;;;5031077;28;20429;-64
2022/02/09 06:33:10;;;;;;;16.65;14.75;;;9.70;89.80;;;;;;5050102;28;20103;-64
2022/02/09 06:35:35;;;;;;;15.30;13.80;;;9.70;89.70;;;;;;5050527;28;20051;-64
2022/02/09 06:38:02;;;;;;;14.68;13.27;;;9.70;89.60;;;;;;5032472;28;20037;-64
2022/02/09 06:40:29;;;;;;;15.68;14.18;;;9.70;89.70;;;;;;5031008;28;20103;-64
2022/02/09 06:42:54;;;;;;;15.13;13.63;;;9.70;89.80;;;;;;5032395;28;20033;-64
2022/02/09 06:45:24;;;;;;;14.82;13.32;;;9.70;89.70;;;;;;5050596;28;20032;-64
2022/02/09 06:47:50;;;;;;;14.15;12.70;;;9.60;89.80;;;;;;5034356;28;20047;-64
2022/02/09 06:52:49;;;;;;;13.82;12.50;;;9.60;90.00;;;;;;5050808;28;20068;-64
2022/02/09 06:55:20;;;;;;;13.43;12.05;;;9.60;90.00;;;;;;5033250;28;20029;-63
2022/02/09 07:00:17;;;;;;;15.63;14.13;;;9.60;90.30;;;;;;5029199;28;20033;-64
2022/02/09 07:02:44;;;;;;;13.63;12.30;;;9.60;90.00;;;;;;5026298;28;20057;-64
2022/02/09 07:05:10;;;;;;;13.82;12.52;;;9.60;90.00;;;;;;5026672;28;20018;-64
2022/02/09 07:07:36;;;;;;;14.57;13.07;;;9.60;90.00;;;;;;5033388;28;20495;-69
2022/02/09 07:10:03;;;;;;;14.45;13.05;;;9.60;90.00;;;;;;5050382;28;20039;-69
2022/02/09 07:12:29;;;;;;;14.10;12.73;;;9.60;90.00;;;;;;5030574;28;20064;-69
2022/02/09 07:14:54;;;;;;;14.35;13.05;;;9.60;90.00;;;;;;5030597;28;20060;-70
2022/02/09 07:17:21;;;;;;;14.60;13.10;;;9.60;89.90;;;;;;5041762;28;20034;-69
2022/02/09 07:20:06;;;;;;;13.68;12.38;;;9.60;89.90;;;;;;5031878;28;20067;-69
2022/02/09 07:22:35;;;;;;;15.75;14.05;;;9.60;89.90;;;;;;5026832;28;20026;-69
2022/02/09 07:25:08;;;;;;;13.43;12.07;;;9.60;89.90;;;;;;5029140;28;20040;-69
2022/02/09 07:30:09;;;;;;;15.45;13.85;;;9.50;89.90;;;;;;5030087;28;20045;-69
2022/02/09 07:32:34;;;;;;;13.80;12.32;;;9.50;90.00;;;;;;5029635;28;20392;-69
2022/02/09 07:35:00;;;;;;;13.82;12.57;;;9.60;90.00;;;;;;5043987;28;20055;-69
2022/02/09 07:37:26;;;;;;;12.45;11.25;;;9.60;90.00;;;;;;5029609;28;20087;-69
2022/02/09 07:39:51;;;;;;;12.98;11.68;;;9.60;90.00;;;;;;5042093;28;20108;-69
2022/02/09 07:42:24;;;;;;;12.38;11.15;;;9.60;90.00;;;;;;5048907;28;20446;-69
2022/02/09 07:47:44;;;;;;;12.70;11.50;;;9.50;89.90;;;;;;5029644;28;20103;-67
2022/02/09 07:55:39;;;;;;;11.52;10.43;;;9.50;90.00;;;;;;5010416;28;20084;-67
2022/02/09 07:58:05;;;;;;;12.90;11.60;;;9.60;90.00;;;;;;5024841;28;20424;-67
2022/02/09 08:00:32;;;;;;;11.25;10.25;;;9.60;90.00;;;;;;5030982;28;20028;-67
2022/02/09 08:02:58;;;;;;;11.77;10.60;;;9.50;90.00;;;;;;5034154;28;20117;-67
2022/02/09 08:05:25;;;;;;;11.80;10.60;;;9.50;90.00;;;;;;5032154;28;20112;-67
2022/02/09 08:07:51;;;;;;;12.75;11.55;;;9.50;90.00;;;;;;5029324;28;20021;-67
2022/02/09 08:28:47;;;;;;;12.70;11.50;;;9.40;90.20;;;;;;5031412;28;20044;-68
2022/02/09 08:33:43;;;;;;;13.90;12.50;;;9.40;90.30;;;;;;5040747;28;20554;-68
2022/02/09 08:36:09;;;;;;;15.13;13.55;;;9.40;90.30;;;;;;5032596;28;20033;-68
2022/02/09 08:38:35;;;;;;;17.35;14.68;;;9.40;90.30;;;;;;5044972;28;20539;-67
2022/02/09 08:41:02;;;;;;;15.35;13.65;;;9.40;90.40;;;;;;5042742;28;20436;-68
2022/02/09 08:43:28;;;;;;;14.45;12.95;;;9.40;90.40;;;;;;5035947;28;20053;-67
2022/02/09 08:45:54;;;;;;;14.85;13.35;;;9.40;90.40;;;;;;5031549;28;20053;-69
2022/02/09 08:48:20;;;;;;;15.82;14.10;;;9.40;90.50;;;;;;5026729;28;20057;-67
2022/02/09 08:50:51;;;;;;;15.02;13.57;;;9.40;90.50;;;;;;5017781;28;20043;-68
2022/02/09 08:53:19;;;;;;;14.20;12.80;;;9.40;90.50;;;;;;5024788;28;20033;-69
2022/02/09 08:55:45;;;;;;;14.70;13.27;;;9.40;90.50;;;;;;5028499;28;20548;-69
2022/02/09 08:58:12;;;;;;;14.75;13.18;;;9.40;90.50;;;;;;5034378;28;20083;-69
2022/02/09 09:00:39;;;;;;;15.50;13.90;;;9.40;90.50;;;;;;5029061;28;20506;-69
2022/02/09 09:05:50;;;;;;;16.65;14.93;;;9.40;90.50;;;;;;5027758;28;20033;-69
2022/02/09 09:10:59;;;;;;;17.75;15.85;;;9.50;90.50;;;;;;5027860;28;20483;-69
2022/02/09 10:03:28;;;;;;;15.02;13.10;;;9.60;90.50;;;;;;5031772;28;20034;-68
2022/02/09 10:33:48;;;;;;;13.80;12.35;;;9.70;90.10;;;;;;5031056;28;20095;-68
2022/02/09 10:36:17;;;;;;;13.50;11.93;;;9.70;90.00;;;;;;5032067;28;20439;-68
2022/02/09 10:38:44;;;;;;;14.65;13.15;;;9.70;90.00;;;;;;5025844;28;20029;-68
2022/02/09 10:41:25;;;;;;;15.15;13.23;;;9.70;90.00;;;;;;5031061;28;20484;-68
2022/02/09 10:44:10;;;;;;;13.90;12.50;;;9.70;90.00;;;;;;5027299;28;20033;-69
2022/02/09 10:47:05;;;;;;;14.23;12.38;;;9.70;89.80;;;;;;5023344;28;20036;-68
2022/02/09 10:49:31;;;;;;;13.07;11.68;;;9.70;89.70;;;;;;5029334;28;20037;-68
2022/02/09 10:54:25;;;;;;;12.98;11.63;;;9.70;89.60;;;;;;5029245;28;20087;-69
2022/02/09 10:56:55;;;;;;;13.88;12.48;;;9.80;89.70;;;;;;5031815;28;20069;-68
2022/02/09 10:59:23;;;;;;;17.35;13.70;;;9.80;89.70;;;;;;5029341;28;20026;-68
2022/02/09 11:01:50;;;;;;;15.07;13.35;;;9.80;89.50;;;;;;5029144;28;20453;-68
2022/02/09 11:04:16;;;;;;;14.60;13.10;;;9.80;89.20;;;;;;5026977;28;20080;-68
2022/02/09 11:06:44;;;;;;;14.45;13.02;;;9.90;89.20;;;;;;5026787;28;20466;-68
2022/02/09 11:09:12;;;;;;;14.82;13.32;;;9.90;89.00;;;;;;5028065;28;20022;-69
2022/02/09 11:11:41;;;;;;;14.80;12.88;;;9.90;89.00;;;;;;5034541;28;20029;-68
2022/02/09 11:14:18;;;;;;;16.17;13.88;;;9.90;88.90;;;;;;5027673;28;20035;-68
2022/02/09 11:16:52;;;;;;;16.23;14.52;;;9.90;88.80;;;;;;5033030;28;20101;-68
2022/02/09 11:19:19;;;;;;;15.15;13.52;;;10.00;88.80;;;;;;5026600;28;20086;-68
2022/02/09 11:21:50;;;;;;;15.80;13.60;;;10.00;88.50;;;;;;5029136;28;20480;-68
2022/02/09 11:24:20;;;;;;;14.68;13.00;;;10.10;88.50;;;;;;5029048;28;20018;-68
2022/02/09 11:27:10;;;;;;;15.20;12.95;;;10.00;88.20;;;;;;5030643;28;20029;-68
2022/02/09 11:29:48;;;;;;;14.95;13.35;;;10.00;88.10;;;;;;5030542;28;20025;-68
2022/02/09 11:35:22;;;;;;;13.60;12.02;;;10.00;87.90;;;;;;5025398;28;20480;-68
2022/02/09 11:40:56;;;;;;;14.65;13.05;;;10.10;88.10;;;;;;5023644;28;21385;-68
2022/02/09 11:43:33;;;;;;;14.32;11.90;;;10.20;87.70;;;;;;5032989;28;20154;-68
2022/02/09 11:57:08;;;;;;;12.35;11.10;;;10.20;87.10;;;;;;5030526;28;20103;-68
2022/02/09 12:11:04;;;;;;;13.50;12.18;;;10.20;86.80;;;;;;5039189;28;20076;-67
2022/02/09 12:13:51;;;;;;;12.90;11.60;;;10.30;86.70;;;;;;5037700;28;20511;-67
2022/02/09 12:19:13;;;;;;;11.98;10.80;;;10.30;86.70;;;;;;5027106;28;20061;-67
2022/02/09 12:21:48;;;;;;;13.00;11.70;;;10.20;86.50;;;;;;5036186;28;20028;-67
2022/02/09 12:24:34;;;;;;;12.05;10.82;;;10.20;86.90;;;;;;5031694;28;20160;-67
2022/02/09 12:27:12;;;;;;;12.60;11.30;;;10.20;86.30;;;;;;5026320;28;20556;-67
2022/02/09 12:29:43;;;;;;;11.95;10.75;;;10.20;86.20;;;;;;5023387;28;20037;-67
2022/02/09 12:32:14;;;;;;;11.93;10.73;;;10.20;86.30;;;;;;5033561;28;20480;-66
2022/02/09 12:35:00;;;;;;;12.98;11.70;;;10.20;86.20;;;;;;5031473;28;20025;-66
2022/02/09 12:37:29;;;;;;;12.65;11.10;;;10.20;86.10;;;;;;5031756;28;20169;-66
2022/02/09 12:40:00;;;;;;;12.80;11.60;;;10.20;86.20;;;;;;5034562;28;20377;-67
2022/02/09 12:42:35;;;;;;;13.30;11.85;;;10.20;86.20;;;;;;5039539;28;20017;-67
2022/02/09 12:45:07;;;;;;;13.82;12.43;;;10.20;86.20;;;;;;5035058;28;20496;-66
2022/02/09 12:47:38;;;;;;;;;;;10.20;86.80;;;;;;5035486;28;20029;-67
2022/02/09 12:50:07;;;;;;;13.18;11.88;;;10.20;86.10;;;;;;5035278;28;19944;-67
2022/02/09 12:52:35;;;;;;;13.02;11.63;;;10.20;86.20;;;;;;5025406;28;20026;-66
2022/02/09 12:55:12;;;;;;;13.38;11.30;;;10.20;86.30;;;;;;5038839;28;20449;-67
2022/02/09 12:58:00;;;;;;;14.13;11.32;;;10.30;86.30;;;;;;5022236;28;20025;-67
2022/02/09 13:00:46;;;;;;;12.23;10.93;;;10.30;85.90;;;;;;5035953;28;20028;-67
2022/02/09 13:03:19;;;;;;;11.02;9.93;;;10.40;86.00;;;;;;5023947;28;20502;-67
2022/02/09 13:05:51;;;;;;;11.88;10.73;;;10.40;86.00;;;;;;5031782;28;20375;-67
2022/02/09 13:08:25;;;;;;;12.73;10.43;;;10.50;85.90;;;;;;5031893;28;20041;-67
2022/02/09 13:10:59;;;;;;;13.10;11.70;;;10.60;85.60;;;;;;5021896;28;20144;-67
2022/02/09 13:13:29;;;;;;;12.73;11.13;;;10.70;85.20;;;;;;5031544;28;20112;-66
2022/02/09 14:55:33;;;;;;;15.45;11.43;;;10.50;85.00;;;;;;5046411;28;20641;-69
2022/02/09 15:00:28;;;;;;;13.25;11.85;;;10.60;84.90;;;;;;5041645;28;20107;-67
2022/02/09 15:03:17;;;;;;;13.15;10.70;;;10.60;85.00;;;;;;5032618;28;20535;-67
2022/02/09 15:06:07;;;;;;;13.70;12.30;;;10.60;85.10;;;;;;5050424;28;20037;-69
2022/02/09 15:16:25;;;;;;;14.27;12.77;;;10.50;85.10;;;;;;5028581;28;20472;-69
2022/02/09 15:21:59;;;;;;;13.50;12.02;;;10.60;85.20;;;;;;5012064;28;20483;-69
2022/02/09 15:24:12;;;;;;;14.23;12.10;;;10.60;85.20;;;;;;5040999;28;20065;-69
2022/02/09 15:26:38;;;;;;;13.63;12.20;;;10.50;85.10;;;;;;5029972;28;20340;-69
2022/02/09 15:29:04;;;;;;;15.85;12.50;;;10.60;85.10;;;;;;5026060;28;20029;-69
2022/02/09 15:31:49;;;;;;;14.75;11.80;;;10.60;85.10;;;;;;5033211;28;20025;-70
2022/02/09 15:34:21;;;;;;;13.23;11.75;;;10.50;85.20;;;;;;5034793;28;20036;-68
2022/02/09 15:37:02;;;;;;;;;;;10.60;85.20;;;;;;5032365;28;20385;-64
2022/02/09 15:39:31;;;;;;;14.82;11.15;;;10.60;85.10;;;;;;5032043;28;19909;-62
2022/02/09 16:11:45;;;;;;;12.23;10.60;;;10.50;86.30;;;;;;5060751;28;20037;-67
2022/02/09 16:22:11;;;;;;;13.98;10.88;;;10.40;86.70;;;;;;5028470;28;20048;-63
2022/02/09 16:25:12;;;;;;;13.68;11.50;;;10.40;87.00;;;;;;5027943;28;20120;-63
2022/02/09 16:46:21;;;;;;;20.90;14.63;;;10.20;88.30;;;;;;5027237;28;20052;-66
2022/02/09 16:51:24;;;;;;;17.10;15.30;;;10.20;88.90;;;;;;5058438;28;20087;-66
2022/02/09 16:56:39;;;;;;;20.15;16.20;;;10.20;89.20;;;;;;5027538;28;20071;-67
2022/02/09 17:20:44;;;;;;;22.35;18.52;;;10.10;90.00;;;;;;5032806;28;20044;-63
2022/02/09 17:23:10;;;;;;;25.33;20.67;;;10.10;90.00;;;;;;5027947;28;20034;-65
2022/02/09 17:25:35;;;;;;;22.48;18.77;;;10.10;90.10;;;;;;5021603;28;20029;-65
2022/02/09 17:28:01;;;;;;;22.48;18.85;;;10.10;90.10;;;;;;5028329;28;20037;-65
2022/02/09 17:33:10;;;;;;;26.30;19.85;;;10.10;90.10;;;;;;5029824;28;20044;-65
2022/02/09 17:36:02;;;;;;;22.45;19.52;;;10.10;90.10;;;;;;5024779;28;20123;-65
2022/02/09 17:57:29;;;;;;;23.70;20.05;;;10.10;90.20;;;;;;5031025;28;20088;-65
2022/02/09 18:02:40;;;;;;;24.92;20.20;;;10.10;90.20;;;;;;5031672;28;20052;-65
2022/02/09 18:05:13;;;;;;;23.08;19.20;;;10.10;90.20;;;;;;5028751;28;20025;-65
2022/02/09 18:07:40;;;;;;;29.48;20.77;;;10.20;90.20;;;;;;5032655;28;20043;-65
2022/02/09 18:10:21;;;;;;;30.27;23.02;;;10.10;90.10;;;;;;5035911;28;20027;-65
2022/02/09 18:29:25;;;;;;;26.77;21.13;;;10.10;90.20;;;;;;5041375;28;20040;-65
2022/02/09 18:45:25;;;;;;;23.70;20.38;;;10.20;90.20;;;;;;5028860;28;20477;-65
2022/02/09 19:01:59;;;;;;;26.42;21.95;;;10.20;90.10;;;;;;5034506;28;20123;-65
2022/02/09 19:15:14;;;;;;;28.50;20.80;;;10.20;90.10;;;;;;5032235;28;20036;-65
2022/02/09 19:17:48;;;;;;;29.30;22.33;;;10.20;90.30;;;;;;5030610;28;20347;-65
2022/02/09 19:30:53;;;;;;;31.02;22.20;;;10.20;90.00;;;;;;5029272;28;20056;-65
2022/02/09 19:46:32;;;;;;;25.80;20.38;;;10.20;90.10;;;;;;5028678;28;20049;-65
2022/02/09 19:49:15;;;;;;;28.08;23.15;;;10.20;90.00;;;;;;5027407;28;20120;-65
2022/02/09 19:52:00;;;;;;;27.50;22.42;;;10.30;90.00;;;;;;5029088;28;20025;-65
2022/02/09 19:54:40;;;;;;;30.95;25.02;;;10.30;90.00;;;;;;5027581;28;20032;-65
2022/02/09 19:57:07;;;;;;;27.58;22.75;;;10.30;90.00;;;;;;5026642;28;20660;-65
2022/02/09 19:59:36;;;;;;;27.75;22.85;;;10.20;90.00;;;;;;5032810;28;20048;-65
2022/02/09 20:02:02;;;;;;;27.42;23.10;;;10.20;90.00;;;;;;5028707;28;20033;-65
2022/02/09 20:04:27;;;;;;;29.80;23.25;;;10.20;90.00;;;;;;5026882;28;20041;-65
2022/02/09 20:06:53;;;;;;;29.23;22.50;;;10.20;90.00;;;;;;5027893;28;20021;-65
2022/02/09 20:09:21;;;;;;;25.70;20.88;;;10.20;90.00;;;;;;5026590;28;20026;-65
2022/02/09 20:11:46;;;;;;;27.55;22.52;;;10.20;90.00;;;;;;5031985;28;20060;-65
2022/02/09 20:14:12;;;;;;;29.73;22.52;;;10.20;90.10;;;;;;5030485;28;20053;-65
2022/02/09 20:16:39;;;;;;;32.05;22.27;;;10.10;90.10;;;;;;5030516;28;20025;-65
2022/02/09 20:19:05;;;;;;;26.23;19.90;;;10.10;90.10;;;;;;5033840;28;20041;-65
2022/02/09 20:21:31;;;;;;;26.73;21.75;;;10.10;90.10;;;;;;5029296;28;20021;-65
2022/02/09 20:23:58;;;;;;;27.88;20.35;;;10.10;90.10;;;;;;5028344;28;20044;-65
2022/02/09 20:26:25;;;;;;;28.88;21.77;;;10.10;90.10;;;;;;5028475;28;20696;-65
2022/02/09 20:29:00;;;;;;;27.98;21.50;;;10.10;90.20;;;;;;5027093;28;20026;-65
2022/02/09 20:31:31;;;;;;;24.38;19.42;;;10.10;90.10;;;;;;5027875;28;20052;-65
2022/02/09 20:34:12;;;;;;;23.27;19.08;;;10.10;90.10;;;;;;5034829;28;20036;-65
2022/02/09 20:36:40;;;;;;;29.98;22.40;;;10.10;90.10;;;;;;5022067;28;20042;-65
2022/02/09 20:39:06;;;;;;;25.98;20.90;;;10.10;90.10;;;;;;5019594;28;20423;-65
2022/02/09 20:41:34;;;;;;;22.88;18.90;;;10.10;90.10;;;;;;5027653;28;20033;-65
2022/02/09 20:44:19;;;;;;;27.40;19.70;;;10.10;90.30;;;;;;5030254;28;20037;-65
2022/02/09 20:46:45;;;;;;;23.05;18.40;;;10.10;90.10;;;;;;5031492;28;20620;-65
2022/02/09 20:49:10;;;;;;;27.75;19.13;;;10.10;90.00;;;;;;5029261;28;20033;-65
2022/02/09 20:51:36;;;;;;;24.23;19.42;;;10.10;90.00;;;;;;5023558;28;20025;-64
2022/02/09 20:54:02;;;;;;;24.45;19.02;;;10.10;90.00;;;;;;5031962;28;20480;-65
2022/02/09 20:56:28;;;;;;;24.45;18.58;;;10.10;90.00;;;;;;5026732;28;20034;-65
2022/02/09 20:59:00;;;;;;;24.83;18.50;;;10.10;90.00;;;;;;5034426;28;20045;-65
2022/02/09 21:01:35;;;;;;;25.00;18.60;;;10.20;90.00;;;;;;5039934;28;20036;-65
2022/02/09 21:04:05;;;;;;;23.33;18.35;;;10.20;90.00;;;;;;5034648;28;20025;-65
2022/02/09 21:06:54;;;;;;;30.95;20.98;;;10.20;90.00;;;;;;5030093;28;20026;-65
2022/02/09 21:31:28;;;;;;;25.17;17.75;;;10.10;89.70;;;;;;5032532;28;20436;-65
2022/02/09 21:54:12;;;;;;;28.52;20.77;;;10.00;90.00;;;;;;5031208;28;20060;-65
2022/02/09 21:57:13;;;;;;;29.23;21.98;;;10.10;90.00;;;;;;5032590;28;20029;-65
2022/02/09 22:06:09;;;;;;;33.17;23.85;;;10.00;90.00;;;;;;5031154;28;20116;-65
2022/02/09 22:27:54;;;;;;;34.78;25.10;;;10.00;89.90;;;;;;5033335;28;20059;-66
2022/02/09 22:55:08;;;;;;;34.72;26.10;;;10.10;89.40;;;;;;5009407;28;20033;-65
2022/02/09 22:57:53;;;;;;;36.45;27.60;;;10.10;89.40;;;;;;5024836;28;20037;-64
2022/02/09 23:00:59;;;;;;;38.47;27.00;;;10.20;89.40;;;;;;5042337;28;20045;-64
2022/02/09 23:14:00;;;;;;;37.65;28.98;;;10.10;89.30;;;;;;5029957;28;20828;-65
2022/02/09 23:17:33;;;;;;;37.88;30.20;;;10.10;89.30;;;;;;5037216;28;20033;-65
